sensor_id;sensor_type;location;lat;lon;timestamp;temperature;humidity
31819;DHT22;18384;48.860;9.188;2024-02-14T00:01:41;6.50;96.90
31819;DHT22;18384;48.860;9.188;2024-02-14T00:04:08;6.50;96.90
31819;DHT22;18384;48.860;9.188;2024-02-14T00:06:37;6.50;96.80
31819;DHT22;18384;48.860;9.188;2024-02-14T00:09:04;6.50;96.80
31819;DHT22;18384;48.860;9.188;2024-02-14T00:11:30;6.50;97.10
31819;DHT22;18384;48.860;9.188;2024-02-14T00:13:57;6.50;96.90
31819;DHT22;18384;48.860;9.188;2024-02-14T00:16:25;7.10;97.10
31819;DHT22;18384;48.860;9.188;2024-02-14T00:18:54;6.50;97.00
31819;DHT22;18384;48.860;9.188;2024-02-14T00:21:20;6.50;96.80
31819;DHT22;18384;48.860;9.188;2024-02-14T00:23:46;6.50;96.80
31819;DHT22;18384;48.860;9.188;2024-02-14T00:26:12;6.40;96.80
31819;DHT22;18384;48.860;9.188;2024-02-14T00:28:38;6.50;96.80
31819;DHT22;18384;48.860;9.188;2024-02-14T00:31:05;6.50;96.80
31819;DHT22;18384;48.860;9.188;2024-02-14T00:33:31;6.60;96.90
31819;DHT22;18384;48.860;9.188;2024-02-14T00:35:58;6.60;96.80
31819;DHT22;18384;48.860;9.188;2024-02-14T00:38:24;6.70;96.50
31819;DHT22;18384;48.860;9.188;2024-02-14T00:40:50;6.70;96.60
31819;DHT22;18384;48.860;9.188;2024-02-14T00:43:16;6.90;96.40
31819;DHT22;18384;48.860;9.188;2024-02-14T00:45:42;6.90;96.30
31819;DHT22;18384;48.860;9.188;2024-02-14T00:48:08;7.00;96.20
31819;DHT22;18384;48.860;9.188;2024-02-14T00:50:34;7.00;96.30
31819;DHT22;18384;48.860;9.188;2024-02-14T00:53:00;7.00;96.10
31819;DHT22;18384;48.860;9.188;2024-02-14T00:55:26;7.10;96.10
31819;DHT22;18384;48.860;9.188;2024-02-14T00:57:53;7.10;95.90
31819;DHT22;18384;48.860;9.188;2024-02-14T01:00:19;7.10;95.90
31819;DHT22;18384;48.860;9.188;2024-02-14T01:02:45;7.10;96.30
31819;DHT22;18384;48.860;9.188;2024-02-14T01:05:12;7.10;96.00
31819;DHT22;18384;48.860;9.188;2024-02-14T01:07:38;7.20;95.90
31819;DHT22;18384;48.860;9.188;2024-02-14T01:10:04;7.10;96.00
31819;DHT22;18384;48.860;9.188;2024-02-14T01:12:30;7.20;96.40
31819;DHT22;18384;48.860;9.188;2024-02-14T01:14:57;7.20;96.70
31819;DHT22;18384;48.860;9.188;2024-02-14T01:17:23;7.30;96.20
31819;DHT22;18384;48.860;9.188;2024-02-14T01:19:50;7.30;96.40
31819;DHT22;18384;48.860;9.188;2024-02-14T01:22:16;7.30;96.40
31819;DHT22;18384;48.860;9.188;2024-02-14T01:24:43;7.20;96.40
31819;DHT22;18384;48.860;9.188;2024-02-14T01:27:09;7.20;96.40
31819;DHT22;18384;48.860;9.188;2024-02-14T01:29:35;7.20;96.40
31819;DHT22;18384;48.860;9.188;2024-02-14T01:32:01;7.20;96.40
31819;DHT22;18384;48.860;9.188;2024-02-14T01:34:30;7.30;96.70
31819;DHT22;18384;48.860;9.188;2024-02-14T01:36:56;7.40;96.20
31819;DHT22;18384;48.860;9.188;2024-02-14T01:39:22;7.40;96.00
31819;DHT22;18384;48.860;9.188;2024-02-14T01:41:49;7.30;95.90
31819;DHT22;18384;48.860;9.188;2024-02-14T01:44:16;7.40;95.90
31819;DHT22;18384;48.860;9.188;2024-02-14T01:46:43;7.40;96.20
31819;DHT22;18384;48.860;9.188;2024-02-14T01:49:10;7.40;96.30
31819;DHT22;18384;48.860;9.188;2024-02-14T01:51:42;7.40;96.20
31819;DHT22;18384;48.860;9.188;2024-02-14T01:54:11;7.50;95.90
31819;DHT22;18384;48.860;9.188;2024-02-14T01:56:39;7.50;95.90
31819;DHT22;18384;48.860;9.188;2024-02-14T01:59:05;7.50;96.00
31819;DHT22;18384;48.860;9.188;2024-02-14T02:01:32;7.60;95.80
31819;DHT22;18384;48.860;9.188;2024-02-14T02:03:59;7.60;95.80
31819;DHT22;18384;48.860;9.188;2024-02-14T02:06:25;7.60;95.90
31819;DHT22;18384;48.860;9.188;2024-02-14T02:08:52;7.60;95.90
31819;DHT22;18384;48.860;9.188;2024-02-14T02:11:18;7.70;96.10
31819;DHT22;18384;48.860;9.188;2024-02-14T02:13:44;7.70;96.20
31819;DHT22;18384;48.860;9.188;2024-02-14T02:16:11;7.70;96.30
31819;DHT22;18384;48.860;9.188;2024-02-14T02:18:38;7.70;96.00
31819;DHT22;18384;48.860;9.188;2024-02-14T02:21:04;7.80;95.90
31819;DHT22;18384;48.860;9.188;2024-02-14T02:23:35;7.80;95.70
31819;DHT22;18384;48.860;9.188;2024-02-14T02:26:02;7.80;95.90
31819;DHT22;18384;48.860;9.188;2024-02-14T02:28:28;7.80;96.00
31819;DHT22;18384;48.860;9.188;2024-02-14T02:30:54;7.80;95.90
31819;DHT22;18384;48.860;9.188;2024-02-14T02:33:21;7.80;96.10
31819;DHT22;18384;48.860;9.188;2024-02-14T02:35:48;7.80;96.00
31819;DHT22;18384;48.860;9.188;2024-02-14T02:38:16;7.90;95.90
31819;DHT22;18384;48.860;9.188;2024-02-14T02:40:47;7.90;95.90
31819;DHT22;18384;48.860;9.188;2024-02-14T02:43:13;7.90;95.90
31819;DHT22;18384;48.860;9.188;2024-02-14T02:45:39;7.90;95.80
31819;DHT22;18384;48.860;9.188;2024-02-14T02:48:06;7.80;95.90
31819;DHT22;18384;48.860;9.188;2024-02-14T02:50:32;7.90;96.00
31819;DHT22;18384;48.860;9.188;2024-02-14T02:52:59;7.80;96.00
31819;DHT22;18384;48.860;9.188;2024-02-14T02:55:25;7.90;96.00
31819;DHT22;18384;48.860;9.188;2024-02-14T02:57:52;7.80;96.30
31819;DHT22;18384;48.860;9.188;2024-02-14T03:00:18;7.80;96.30
31819;DHT22;18384;48.860;9.188;2024-02-14T03:02:46;7.80;96.20
31819;DHT22;18384;48.860;9.188;2024-02-14T03:05:13;7.80;96.10
31819;DHT22;18384;48.860;9.188;2024-02-14T03:07:49;7.80;96.10
31819;DHT22;18384;48.860;9.188;2024-02-14T03:10:16;7.80;96.20
31819;DHT22;18384;48.860;9.188;2024-02-14T03:12:48;7.70;96.20
31819;DHT22;18384;48.860;9.188;2024-02-14T03:15:15;7.60;96.20
31819;DHT22;18384;48.860;9.188;2024-02-14T03:17:41;7.60;96.50
31819;DHT22;18384;48.860;9.188;2024-02-14T03:20:08;7.50;96.50
31819;DHT22;18384;48.860;9.188;2024-02-14T03:22:40;7.50;96.50
31819;DHT22;18384;48.860;9.188;2024-02-14T03:25:19;7.40;96.60
31819;DHT22;18384;48.860;9.188;2024-02-14T03:27:46;7.40;96.60
31819;DHT22;18384;48.860;9.188;2024-02-14T03:30:18;7.30;96.50
31819;DHT22;18384;48.860;9.188;2024-02-14T03:32:51;7.40;96.60
31819;DHT22;18384;48.860;9.188;2024-02-14T03:35:18;7.30;96.70
31819;DHT22;18384;48.860;9.188;2024-02-14T03:37:46;7.20;96.70
31819;DHT22;18384;48.860;9.188;2024-02-14T03:40:18;7.20;96.80
31819;DHT22;18384;48.860;9.188;2024-02-14T03:42:48;7.20;96.80
31819;DHT22;18384;48.860;9.188;2024-02-14T03:45:14;7.20;96.90
31819;DHT22;18384;48.860;9.188;2024-02-14T03:47:40;7.20;97.10
31819;DHT22;18384;48.860;9.188;2024-02-14T03:50:08;7.30;97.00
31819;DHT22;18384;48.860;9.188;2024-02-14T03:52:34;7.30;97.00
31819;DHT22;18384;48.860;9.188;2024-02-14T03:55:01;7.30;97.10
31819;DHT22;18384;48.860;9.188;2024-02-14T03:57:28;7.40;96.90
31819;DHT22;18384;48.860;9.188;2024-02-14T04:00:00;7.40;96.80
31819;DHT22;18384;48.860;9.188;2024-02-14T04:02:33;7.50;96.90
31819;DHT22;18384;48.860;9.188;2024-02-14T04:04:59;7.50;96.70
31819;DHT22;18384;48.860;9.188;2024-02-14T04:07:25;7.60;96.50
31819;DHT22;18384;48.860;9.188;2024-02-14T04:09:52;7.60;96.80
31819;DHT22;18384;48.860;9.188;2024-02-14T04:12:18;7.60;96.40
31819;DHT22;18384;48.860;9.188;2024-02-14T04:14:44;7.70;96.30
31819;DHT22;18384;48.860;9.188;2024-02-14T04:17:10;7.70;96.30
31819;DHT22;18384;48.860;9.188;2024-02-14T04:19:38;7.70;96.20
31819;DHT22;18384;48.860;9.188;2024-02-14T04:22:04;7.70;96.20
31819;DHT22;18384;48.860;9.188;2024-02-14T04:24:33;7.80;96.30
31819;DHT22;18384;48.860;9.188;2024-02-14T04:27:00;7.80;96.20
31819;DHT22;18384;48.860;9.188;2024-02-14T04:29:28;7.80;96.20
31819;DHT22;18384;48.860;9.188;2024-02-14T04:32:02;7.80;96.30
31819;DHT22;18384;48.860;9.188;2024-02-14T04:34:28;7.70;96.20
31819;DHT22;18384;48.860;9.188;2024-02-14T04:36:55;7.70;96.30
31819;DHT22;18384;48.860;9.188;2024-02-14T04:39:22;7.60;96.20
31819;DHT22;18384;48.860;9.188;2024-02-14T04:41:48;7.60;96.40
31819;DHT22;18384;48.860;9.188;2024-02-14T04:44:15;7.70;96.50
31819;DHT22;18384;48.860;9.188;2024-02-14T04:46:41;7.70;96.40
31819;DHT22;18384;48.860;9.188;2024-02-14T04:49:09;7.70;96.30
31819;DHT22;18384;48.860;9.188;2024-02-14T04:51:36;7.80;96.30
31819;DHT22;18384;48.860;9.188;2024-02-14T04:54:02;7.80;96.20
31819;DHT22;18384;48.860;9.188;2024-02-14T04:56:28;7.80;96.10
31819;DHT22;18384;48.860;9.188;2024-02-14T04:58:54;7.80;96.30
31819;DHT22;18384;48.860;9.188;2024-02-14T05:01:21;7.90;96.30
31819;DHT22;18384;48.860;9.188;2024-02-14T05:03:47;7.90;96.50
31819;DHT22;18384;48.860;9.188;2024-02-14T05:06:14;7.90;96.30
31819;DHT22;18384;48.860;9.188;2024-02-14T05:08:40;8.00;96.10
31819;DHT22;18384;48.860;9.188;2024-02-14T05:11:06;8.00;96.00
31819;DHT22;18384;48.860;9.188;2024-02-14T05:13:32;8.00;95.70
31819;DHT22;18384;48.860;9.188;2024-02-14T05:16:02;8.00;95.80
31819;DHT22;18384;48.860;9.188;2024-02-14T05:18:29;8.00;95.80
31819;DHT22;18384;48.860;9.188;2024-02-14T05:20:55;8.10;95.80
31819;DHT22;18384;48.860;9.188;2024-02-14T05:23:21;8.10;96.00
31819;DHT22;18384;48.860;9.188;2024-02-14T05:25:48;8.10;95.70
31819;DHT22;18384;48.860;9.188;2024-02-14T05:28:15;8.10;95.50
31819;DHT22;18384;48.860;9.188;2024-02-14T05:30:44;8.20;95.60
31819;DHT22;18384;48.860;9.188;2024-02-14T05:33:10;8.20;95.50
31819;DHT22;18384;48.860;9.188;2024-02-14T05:35:36;8.20;95.40
31819;DHT22;18384;48.860;9.188;2024-02-14T05:38:03;8.20;95.50
31819;DHT22;18384;48.860;9.188;2024-02-14T05:40:33;8.10;95.40
31819;DHT22;18384;48.860;9.188;2024-02-14T05:43:00;8.10;95.30
31819;DHT22;18384;48.860;9.188;2024-02-14T05:45:26;8.10;95.50
31819;DHT22;18384;48.860;9.188;2024-02-14T05:47:53;8.10;95.40
31819;DHT22;18384;48.860;9.188;2024-02-14T05:50:19;8.10;95.30
31819;DHT22;18384;48.860;9.188;2024-02-14T05:52:45;8.10;95.30
31819;DHT22;18384;48.860;9.188;2024-02-14T05:55:11;8.10;95.20
31819;DHT22;18384;48.860;9.188;2024-02-14T05:57:37;8.10;95.40
31819;DHT22;18384;48.860;9.188;2024-02-14T06:00:04;8.10;95.40
31819;DHT22;18384;48.860;9.188;2024-02-14T06:02:31;8.10;95.50
31819;DHT22;18384;48.860;9.188;2024-02-14T06:04:57;8.10;95.50
31819;DHT22;18384;48.860;9.188;2024-02-14T06:07:23;8.10;95.30
31819;DHT22;18384;48.860;9.188;2024-02-14T06:09:49;8.10;95.30
31819;DHT22;18384;48.860;9.188;2024-02-14T06:12:15;8.00;95.40
31819;DHT22;18384;48.860;9.188;2024-02-14T06:14:41;8.00;95.50
31819;DHT22;18384;48.860;9.188;2024-02-14T06:17:07;7.90;95.40
31819;DHT22;18384;48.860;9.188;2024-02-14T06:19:33;7.90;95.30
31819;DHT22;18384;48.860;9.188;2024-02-14T06:22:00;7.90;95.40
31819;DHT22;18384;48.860;9.188;2024-02-14T06:24:26;7.80;95.40
31819;DHT22;18384;48.860;9.188;2024-02-14T06:26:52;7.80;95.50
31819;DHT22;18384;48.860;9.188;2024-02-14T06:29:18;7.80;95.40
31819;DHT22;18384;48.860;9.188;2024-02-14T06:31:46;7.80;95.50
31819;DHT22;18384;48.860;9.188;2024-02-14T06:34:12;7.80;95.40
31819;DHT22;18384;48.860;9.188;2024-02-14T06:36:39;7.80;95.50
31819;DHT22;18384;48.860;9.188;2024-02-14T06:39:07;7.70;95.80
31819;DHT22;18384;48.860;9.188;2024-02-14T06:41:33;7.70;95.60
31819;DHT22;18384;48.860;9.188;2024-02-14T06:43:59;7.80;95.60
31819;DHT22;18384;48.860;9.188;2024-02-14T06:46:25;7.80;95.60
31819;DHT22;18384;48.860;9.188;2024-02-14T06:48:51;7.90;95.50
31819;DHT22;18384;48.860;9.188;2024-02-14T06:51:18;7.90;95.40
31819;DHT22;18384;48.860;9.188;2024-02-14T06:53:45;7.90;95.30
31819;DHT22;18384;48.860;9.188;2024-02-14T06:56:11;8.00;95.40
31819;DHT22;18384;48.860;9.188;2024-02-14T06:58:38;8.00;95.30
31819;DHT22;18384;48.860;9.188;2024-02-14T07:01:04;8.00;95.40
31819;DHT22;18384;48.860;9.188;2024-02-14T07:03:30;8.00;95.20
31819;DHT22;18384;48.860;9.188;2024-02-14T07:05:57;8.00;95.20
31819;DHT22;18384;48.860;9.188;2024-02-14T07:08:23;8.00;95.40
31819;DHT22;18384;48.860;9.188;2024-02-14T07:10:51;8.10;95.30
31819;DHT22;18384;48.860;9.188;2024-02-14T07:13:17;8.10;95.10
31819;DHT22;18384;48.860;9.188;2024-02-14T07:15:44;8.20;95.20
31819;DHT22;18384;48.860;9.188;2024-02-14T07:18:10;8.20;95.00
31819;DHT22;18384;48.860;9.188;2024-02-14T07:20:37;8.20;95.20
31819;DHT22;18384;48.860;9.188;2024-02-14T07:23:03;8.20;95.00
31819;DHT22;18384;48.860;9.188;2024-02-14T07:25:29;8.20;95.20
31819;DHT22;18384;48.860;9.188;2024-02-14T07:27:56;8.20;95.20
31819;DHT22;18384;48.860;9.188;2024-02-14T07:30:22;8.30;95.20
31819;DHT22;18384;48.860;9.188;2024-02-14T07:32:48;8.20;95.20
31819;DHT22;18384;48.860;9.188;2024-02-14T07:35:14;8.30;95.30
31819;DHT22;18384;48.860;9.188;2024-02-14T07:37:40;8.30;95.40
31819;DHT22;18384;48.860;9.188;2024-02-14T07:40:08;8.40;95.30
31819;DHT22;18384;48.860;9.188;2024-02-14T07:42:35;8.40;95.10
31819;DHT22;18384;48.860;9.188;2024-02-14T07:45:01;8.50;95.10
31819;DHT22;18384;48.860;9.188;2024-02-14T07:47:29;8.60;95.00
31819;DHT22;18384;48.860;9.188;2024-02-14T07:49:55;8.60;95.20
31819;DHT22;18384;48.860;9.188;2024-02-14T07:52:23;8.70;95.20
31819;DHT22;18384;48.860;9.188;2024-02-14T07:54:55;8.70;95.40
31819;DHT22;18384;48.860;9.188;2024-02-14T07:57:24;8.80;95.20
31819;DHT22;18384;48.860;9.188;2024-02-14T07:59:51;8.80;95.50
31819;DHT22;18384;48.860;9.188;2024-02-14T08:02:18;8.90;95.20
31819;DHT22;18384;48.860;9.188;2024-02-14T08:04:45;9.00;95.00
31819;DHT22;18384;48.860;9.188;2024-02-14T08:07:11;9.10;94.80
31819;DHT22;18384;48.860;9.188;2024-02-14T08:09:37;9.10;94.90
31819;DHT22;18384;48.860;9.188;2024-02-14T08:12:05;9.20;94.80
31819;DHT22;18384;48.860;9.188;2024-02-14T08:14:32;9.30;94.70
31819;DHT22;18384;48.860;9.188;2024-02-14T08:16:58;9.30;94.70
31819;DHT22;18384;48.860;9.188;2024-02-14T08:19:24;9.40;95.10
31819;DHT22;18384;48.860;9.188;2024-02-14T08:21:50;9.40;95.10
31819;DHT22;18384;48.860;9.188;2024-02-14T08:24:16;9.60;95.00
31819;DHT22;18384;48.860;9.188;2024-02-14T08:26:43;9.50;95.10
31819;DHT22;18384;48.860;9.188;2024-02-14T08:29:09;9.60;95.10
31819;DHT22;18384;48.860;9.188;2024-02-14T08:31:37;9.60;95.10
31819;DHT22;18384;48.860;9.188;2024-02-14T08:34:03;9.70;95.10
31819;DHT22;18384;48.860;9.188;2024-02-14T08:36:29;9.70;95.30
31819;DHT22;18384;48.860;9.188;2024-02-14T08:38:55;9.80;95.30
31819;DHT22;18384;48.860;9.188;2024-02-14T08:41:21;9.80;94.90
31819;DHT22;18384;48.860;9.188;2024-02-14T08:43:49;9.90;94.70
31819;DHT22;18384;48.860;9.188;2024-02-14T08:46:17;10.00;94.60
31819;DHT22;18384;48.860;9.188;2024-02-14T08:48:43;10.00;95.00
31819;DHT22;18384;48.860;9.188;2024-02-14T08:51:13;10.10;94.80
31819;DHT22;18384;48.860;9.188;2024-02-14T08:53:39;10.20;94.70
31819;DHT22;18384;48.860;9.188;2024-02-14T08:56:08;10.30;94.80
31819;DHT22;18384;48.860;9.188;2024-02-14T08:58:34;10.40;94.70
31819;DHT22;18384;48.860;9.188;2024-02-14T09:01:01;10.50;94.60
31819;DHT22;18384;48.860;9.188;2024-02-14T09:03:27;10.60;94.40
31819;DHT22;18384;48.860;9.188;2024-02-14T09:05:53;10.70;94.20
31819;DHT22;18384;48.860;9.188;2024-02-14T09:08:19;10.80;94.20
31819;DHT22;18384;48.860;9.188;2024-02-14T09:10:46;10.80;94.30
31819;DHT22;18384;48.860;9.188;2024-02-14T09:13:12;10.80;94.10
31819;DHT22;18384;48.860;9.188;2024-02-14T09:15:40;10.80;94.20
31819;DHT22;18384;48.860;9.188;2024-02-14T09:18:06;10.90;94.40
31819;DHT22;18384;48.860;9.188;2024-02-14T09:20:32;11.00;93.90
31819;DHT22;18384;48.860;9.188;2024-02-14T09:22:58;11.00;93.60
31819;DHT22;18384;48.860;9.188;2024-02-14T09:25:24;11.00;93.60
31819;DHT22;18384;48.860;9.188;2024-02-14T09:27:51;11.00;93.40
31819;DHT22;18384;48.860;9.188;2024-02-14T09:30:17;11.00;93.50
31819;DHT22;18384;48.860;9.188;2024-02-14T09:32:46;11.10;93.70
31819;DHT22;18384;48.860;9.188;2024-02-14T09:35:13;11.20;93.80
31819;DHT22;18384;48.860;9.188;2024-02-14T09:37:39;11.20;93.80
31819;DHT22;18384;48.860;9.188;2024-02-14T09:40:06;11.30;93.60
31819;DHT22;18384;48.860;9.188;2024-02-14T09:42:44;11.40;93.30
31819;DHT22;18384;48.860;9.188;2024-02-14T09:45:26;11.50;93.30
31819;DHT22;18384;48.860;9.188;2024-02-14T09:47:53;11.50;93.30
31819;DHT22;18384;48.860;9.188;2024-02-14T09:50:20;11.50;93.10
31819;DHT22;18384;48.860;9.188;2024-02-14T09:52:49;11.50;93.10
31819;DHT22;18384;48.860;9.188;2024-02-14T09:55:16;11.50;92.90
31819;DHT22;18384;48.860;9.188;2024-02-14T09:57:43;11.60;92.80
31819;DHT22;18384;48.860;9.188;2024-02-14T10:00:11;11.50;93.20
31819;DHT22;18384;48.860;9.188;2024-02-14T10:02:41;11.60;93.20
31819;DHT22;18384;48.860;9.188;2024-02-14T10:05:11;11.50;93.40
31819;DHT22;18384;48.860;9.188;2024-02-14T10:07:41;11.50;93.40
31819;DHT22;18384;48.860;9.188;2024-02-14T10:10:08;11.70;93.40
31819;DHT22;18384;48.860;9.188;2024-02-14T10:12:35;11.60;93.30
31819;DHT22;18384;48.860;9.188;2024-02-14T10:15:02;11.70;93.30
31819;DHT22;18384;48.860;9.188;2024-02-14T10:17:32;11.80;93.40
31819;DHT22;18384;48.860;9.188;2024-02-14T10:20:00;11.80;93.40
31819;DHT22;18384;48.860;9.188;2024-02-14T10:22:37;11.90;93.30
31819;DHT22;18384;48.860;9.188;2024-02-14T10:25:05;12.00;93.30
31819;DHT22;18384;48.860;9.188;2024-02-14T10:27:38;12.10;93.50
31819;DHT22;18384;48.860;9.188;2024-02-14T10:30:06;12.20;93.40
31819;DHT22;18384;48.860;9.188;2024-02-14T10:32:36;12.10;93.30
31819;DHT22;18384;48.860;9.188;2024-02-14T10:35:04;12.00;93.50
31819;DHT22;18384;48.860;9.188;2024-02-14T10:37:35;12.00;93.20
31819;DHT22;18384;48.860;9.188;2024-02-14T10:40:04;12.00;93.30
31819;DHT22;18384;48.860;9.188;2024-02-14T10:42:32;12.10;93.70
31819;DHT22;18384;48.860;9.188;2024-02-14T10:45:04;12.10;93.70
31819;DHT22;18384;48.860;9.188;2024-02-14T10:47:34;12.10;94.10
31819;DHT22;18384;48.860;9.188;2024-02-14T10:50:05;12.10;93.80
31819;DHT22;18384;48.860;9.188;2024-02-14T10:52:34;12.10;94.10
31819;DHT22;18384;48.860;9.188;2024-02-14T10:55:04;12.20;94.40
31819;DHT22;18384;48.860;9.188;2024-02-14T10:57:31;12.30;94.30
31819;DHT22;18384;48.860;9.188;2024-02-14T11:00:06;12.40;94.30
31819;DHT22;18384;48.860;9.188;2024-02-14T11:02:36;12.50;94.20
31819;DHT22;18384;48.860;9.188;2024-02-14T11:05:03;12.60;93.90
31819;DHT22;18384;48.860;9.188;2024-02-14T11:07:31;12.60;94.30
31819;DHT22;18384;48.860;9.188;2024-02-14T11:10:07;12.60;94.00
31819;DHT22;18384;48.860;9.188;2024-02-14T11:12:35;12.70;94.00
31819;DHT22;18384;48.860;9.188;2024-02-14T11:15:22;12.70;94.30
31819;DHT22;18384;48.860;9.188;2024-02-14T11:18:07;12.70;94.70
31819;DHT22;18384;48.860;9.188;2024-02-14T11:20:35;12.70;94.30
31819;DHT22;18384;48.860;9.188;2024-02-14T11:23:06;12.70;94.40
31819;DHT22;18384;48.860;9.188;2024-02-14T11:25:37;12.30;94.40
31819;DHT22;18384;48.860;9.188;2024-02-14T11:28:23;12.50;94.80
31819;DHT22;18384;48.860;9.188;2024-02-14T11:30:51;12.40;94.80
31819;DHT22;18384;48.860;9.188;2024-02-14T11:33:22;12.40;95.10
31819;DHT22;18384;48.860;9.188;2024-02-14T11:35:50;12.30;95.20
31819;DHT22;18384;48.860;9.188;2024-02-14T11:38:19;12.40;95.10
31819;DHT22;18384;48.860;9.188;2024-02-14T11:40:45;12.40;95.30
31819;DHT22;18384;48.860;9.188;2024-02-14T11:43:16;12.40;95.40
31819;DHT22;18384;48.860;9.188;2024-02-14T11:45:43;12.40;95.60
31819;DHT22;18384;48.860;9.188;2024-02-14T11:48:15;12.40;95.60
31819;DHT22;18384;48.860;9.188;2024-02-14T11:50:53;12.50;95.90
31819;DHT22;18384;48.860;9.188;2024-02-14T11:53:21;12.50;96.00
31819;DHT22;18384;48.860;9.188;2024-02-14T11:55:47;12.50;95.90
31819;DHT22;18384;48.860;9.188;2024-02-14T11:58:14;12.60;95.80
31819;DHT22;18384;48.860;9.188;2024-02-14T12:00:46;12.60;95.90
31819;DHT22;18384;48.860;9.188;2024-02-14T12:03:20;12.70;96.00
31819;DHT22;18384;48.860;9.188;2024-02-14T12:05:52;12.70;96.20
31819;DHT22;18384;48.860;9.188;2024-02-14T12:08:19;12.80;95.70
31819;DHT22;18384;48.860;9.188;2024-02-14T12:10:46;12.90;95.60
31819;DHT22;18384;48.860;9.188;2024-02-14T12:13:17;13.00;95.20
31819;DHT22;18384;48.860;9.188;2024-02-14T12:15:46;13.00;95.10
31819;DHT22;18384;48.860;9.188;2024-02-14T12:18:13;12.90;95.10
31819;DHT22;18384;48.860;9.188;2024-02-14T12:20:41;12.90;95.30
31819;DHT22;18384;48.860;9.188;2024-02-14T12:23:17;12.90;95.40
31819;DHT22;18384;48.860;9.188;2024-02-14T12:25:45;13.00;95.90
31819;DHT22;18384;48.860;9.188;2024-02-14T12:28:18;13.00;95.40
31819;DHT22;18384;48.860;9.188;2024-02-14T12:30:46;13.00;95.30
31819;DHT22;18384;48.860;9.188;2024-02-14T12:33:22;13.10;95.30
31819;DHT22;18384;48.860;9.188;2024-02-14T12:35:53;13.20;95.40
31819;DHT22;18384;48.860;9.188;2024-02-14T12:38:21;13.30;95.40
31819;DHT22;18384;48.860;9.188;2024-02-14T12:40:49;13.40;95.30
31819;DHT22;18384;48.860;9.188;2024-02-14T12:43:15;13.60;95.70
31819;DHT22;18384;48.860;9.188;2024-02-14T12:45:42;13.70;95.30
31819;DHT22;18384;48.860;9.188;2024-02-14T12:48:11;13.80;95.60
31819;DHT22;18384;48.860;9.188;2024-02-14T12:50:39;14.00;95.40
31819;DHT22;18384;48.860;9.188;2024-02-14T12:53:10;14.00;94.80
31819;DHT22;18384;48.860;9.188;2024-02-14T12:55:36;14.10;95.10
31819;DHT22;18384;48.860;9.188;2024-02-14T12:58:03;14.10;94.60
31819;DHT22;18384;48.860;9.188;2024-02-14T13:00:29;14.10;95.00
31819;DHT22;18384;48.860;9.188;2024-02-14T13:02:57;14.30;94.90
31819;DHT22;18384;48.860;9.188;2024-02-14T13:05:25;14.30;94.70
31819;DHT22;18384;48.860;9.188;2024-02-14T13:07:51;14.40;94.80
31819;DHT22;18384;48.860;9.188;2024-02-14T13:10:17;14.50;94.80
31819;DHT22;18384;48.860;9.188;2024-02-14T13:12:43;14.50;94.40
31819;DHT22;18384;48.860;9.188;2024-02-14T13:15:11;14.50;94.10
31819;DHT22;18384;48.860;9.188;2024-02-14T13:17:37;14.50;94.40
31819;DHT22;18384;48.860;9.188;2024-02-14T13:20:04;14.50;94.10
31819;DHT22;18384;48.860;9.188;2024-02-14T13:22:30;14.50;94.00
31819;DHT22;18384;48.860;9.188;2024-02-14T13:24:58;14.50;94.20
31819;DHT22;18384;48.860;9.188;2024-02-14T13:27:26;14.50;94.10
31819;DHT22;18384;48.860;9.188;2024-02-14T13:29:52;14.40;94.10
31819;DHT22;18384;48.860;9.188;2024-02-14T13:32:18;14.30;94.10
31819;DHT22;18384;48.860;9.188;2024-02-14T13:34:44;14.20;94.40
31819;DHT22;18384;48.860;9.188;2024-02-14T13:37:11;14.20;94.40
31819;DHT22;18384;48.860;9.188;2024-02-14T13:39:37;14.10;94.70
31819;DHT22;18384;48.860;9.188;2024-02-14T13:42:03;14.10;94.60
31819;DHT22;18384;48.860;9.188;2024-02-14T13:44:29;14.10;94.70
31819;DHT22;18384;48.860;9.188;2024-02-14T13:46:55;14.10;94.70
31819;DHT22;18384;48.860;9.188;2024-02-14T13:49:21;14.20;94.90
31819;DHT22;18384;48.860;9.188;2024-02-14T13:51:49;14.20;94.90
31819;DHT22;18384;48.860;9.188;2024-02-14T13:54:19;14.30;94.90
31819;DHT22;18384;48.860;9.188;2024-02-14T13:56:46;14.30;95.00
31819;DHT22;18384;48.860;9.188;2024-02-14T13:59:14;14.30;95.00
31819;DHT22;18384;48.860;9.188;2024-02-14T14:01:41;14.40;95.00
31819;DHT22;18384;48.860;9.188;2024-02-14T14:04:07;14.50;94.90
31819;DHT22;18384;48.860;9.188;2024-02-14T14:06:33;14.50;94.80
31819;DHT22;18384;48.860;9.188;2024-02-14T14:09:00;14.60;94.80
31819;DHT22;18384;48.860;9.188;2024-02-14T14:11:26;14.60;94.80
31819;DHT22;18384;48.860;9.188;2024-02-14T14:13:52;14.70;94.80
31819;DHT22;18384;48.860;9.188;2024-02-14T14:16:18;14.70;94.70
31819;DHT22;18384;48.860;9.188;2024-02-14T14:18:50;14.60;94.80
31819;DHT22;18384;48.860;9.188;2024-02-14T14:21:16;14.50;94.90
31819;DHT22;18384;48.860;9.188;2024-02-14T14:23:51;14.40;95.00
31819;DHT22;18384;48.860;9.188;2024-02-14T15:53:48;13.50;96.30
31819;DHT22;18384;48.860;9.188;2024-02-14T15:56:14;13.50;96.30
31819;DHT22;18384;48.860;9.188;2024-02-14T15:58:40;13.60;96.40
31819;DHT22;18384;48.860;9.188;2024-02-14T16:01:07;13.60;96.30
31819;DHT22;18384;48.860;9.188;2024-02-14T16:03:33;13.50;96.30
31819;DHT22;18384;48.860;9.188;2024-02-14T16:05:59;13.40;96.40
31819;DHT22;18384;48.860;9.188;2024-02-14T16:08:25;13.50;96.50
31819;DHT22;18384;48.860;9.188;2024-02-14T16:10:56;13.40;96.40
31819;DHT22;18384;48.860;9.188;2024-02-14T16:13:23;13.40;96.50
31819;DHT22;18384;48.860;9.188;2024-02-14T16:15:49;13.50;96.40
31819;DHT22;18384;48.860;9.188;2024-02-14T16:18:15;13.40;96.50
31819;DHT22;18384;48.860;9.188;2024-02-14T16:20:42;13.40;96.40
31819;DHT22;18384;48.860;9.188;2024-02-14T16:23:08;13.40;96.40
31819;DHT22;18384;48.860;9.188;2024-02-14T16:25:34;13.50;96.40
31819;DHT22;18384;48.860;9.188;2024-02-14T16:28:05;13.50;96.40
31819;DHT22;18384;48.860;9.188;2024-02-14T16:30:32;13.40;96.50
31819;DHT22;18384;48.860;9.188;2024-02-14T16:32:58;13.40;96.40
31819;DHT22;18384;48.860;9.188;2024-02-14T16:35:30;13.10;96.30
31819;DHT22;18384;48.860;9.188;2024-02-14T16:37:57;13.40;96.50
31819;DHT22;18384;48.860;9.188;2024-02-14T16:40:24;13.30;96.60
31819;DHT22;18384;48.860;9.188;2024-02-14T16:42:53;13.30;96.80
31819;DHT22;18384;48.860;9.188;2024-02-14T16:45:19;13.20;96.60
31819;DHT22;18384;48.860;9.188;2024-02-14T16:47:46;13.20;96.60
31819;DHT22;18384;48.860;9.188;2024-02-14T16:50:12;13.20;96.60
31819;DHT22;18384;48.860;9.188;2024-02-14T16:52:38;13.20;96.60
31819;DHT22;18384;48.860;9.188;2024-02-14T16:55:04;13.20;96.70
31819;DHT22;18384;48.860;9.188;2024-02-14T16:57:31;13.20;96.70
31819;DHT22;18384;48.860;9.188;2024-02-14T16:59:57;13.20;96.70
31819;DHT22;18384;48.860;9.188;2024-02-14T17:02:26;13.10;96.70
31819;DHT22;18384;48.860;9.188;2024-02-14T17:04:52;13.10;96.60
31819;DHT22;18384;48.860;9.188;2024-02-14T17:07:18;13.10;96.60
31819;DHT22;18384;48.860;9.188;2024-02-14T17:09:44;13.10;96.60